Time;durP1;ratioP1;P1;durP2;ratioP2;P2;SDS_P1;SDS_P2;PMS_P1;PMS_P2;Temp;Humidity;BMP_temperature;BMP_pressure;BME280_temperature;BME280_humidity;BME280_pressure;Samples;Min_cycle;Max_cycle;Signal;HPM_P1;HPM_P2
2023/08/31 00:01:03;;;;;;;4.70;1.77;;;;;;;12.19;100.00;96750.47;5067066;28;20075;-58
2023/08/31 00:03:31;;;;;;;3.75;1.70;;;;;;;12.19;100.00;96752.34;5024178;28;20045;-59
2023/08/31 00:06:01;;;;;;;4.60;2.05;;;;;;;12.06;100.00;96749.13;5024752;28;20118;-58
2023/08/31 00:08:28;;;;;;;3.55;1.58;;;;;;;12.08;100.00;96755.13;5047294;28;20435;-58
2023/08/31 00:10:58;;;;;;;4.60;1.70;;;;;;;12.00;100.00;96757.53;5054258;28;20066;-59
2023/08/31 00:13:26;;;;;;;5.85;2.78;;;;;;;11.99;100.00;96753.22;5033882;28;20106;-57
2023/08/31 00:15:57;;;;;;;5.28;2.40;;;;;;;11.87;100.00;96764.38;4958892;28;20040;-58
2023/08/31 00:18:25;;;;;;;4.80;1.92;;;;;;;11.89;100.00;96759.47;4966781;28;20121;-59
2023/08/31 00:20:53;;;;;;;5.32;2.28;;;;;;;11.70;100.00;96765.50;4964613;28;20429;-59
2023/08/31 00:23:19;;;;;;;6.18;2.13;;;;;;;11.22;100.00;96782.06;4978285;28;20069;-58
2023/08/31 00:25:52;;;;;;;6.28;2.13;;;;;;;10.99;100.00;96814.81;4967642;28;20043;-60
2023/08/31 00:28:19;;;;;;;6.15;2.88;;;;;;;10.84;100.00;96828.34;4992295;28;20046;-59
2023/08/31 00:30:45;;;;;;;5.05;2.25;;;;;;;10.74;100.00;96848.91;4968112;28;20043;-59
2023/08/31 00:33:13;;;;;;;6.10;2.47;;;;;;;10.74;100.00;96870.56;4969198;28;20574;-59
2023/08/31 00:35:45;;;;;;;6.00;2.30;;;;;;;10.78;100.00;96873.56;4971755;28;20050;-58
2023/08/31 00:38:13;;;;;;;4.00;2.22;;;;;;;10.60;100.00;96862.13;4971056;28;20047;-57
2023/08/31 00:40:44;;;;;;;5.35;2.40;;;;;;;10.53;100.00;96873.19;4964072;28;20138;-58
2023/08/31 00:43:12;;;;;;;6.78;3.08;;;;;;;10.54;100.00;96882.09;4980299;28;20046;-60
2023/08/31 00:45:40;;;;;;;5.00;2.50;;;;;;;10.59;100.00;96897.56;4971828;28;20068;-58
2023/08/31 00:48:08;;;;;;;6.20;3.28;;;;;;;10.63;100.00;96893.25;4970165;28;20116;-59
2023/08/31 00:50:35;;;;;;;6.93;3.05;;;;;;;10.80;100.00;96885.75;4976158;28;20129;-59
2023/08/31 00:53:03;;;;;;;5.78;2.70;;;;;;;10.93;100.00;96864.66;4964063;28;20039;-58
2023/08/31 00:55:31;;;;;;;6.57;3.70;;;;;;;11.04;100.00;96854.66;4964251;28;20077;-57
2023/08/31 00:57:59;;;;;;;4.70;2.80;;;;;;;10.86;100.00;96813.44;4961358;28;20149;-58
2023/08/31 01:00:44;;;;;;;8.23;3.55;;;;;;;10.66;100.00;96833.19;4972011;28;20046;-58
2023/08/31 01:03:24;;;;;;;7.43;2.75;;;;;;;10.45;100.00;96860.16;4960892;28;20104;-58
2023/08/31 01:05:54;;;;;;;10.07;3.20;;;;;;;10.34;100.00;96869.25;5011173;28;20054;-59
2023/08/31 01:08:38;;;;;;;5.28;3.25;;;;;;;10.43;100.00;96881.22;4971796;28;20580;-58
2023/08/31 01:11:13;;;;;;;6.35;3.40;;;;;;;10.44;100.00;96865.81;4958040;28;20053;-58
2023/08/31 01:13:44;;;;;;;4.43;2.80;;;;;;;10.50;100.00;96865.59;4967871;28;20050;-59
2023/08/31 01:16:13;;;;;;;6.32;3.15;;;;;;;10.46;100.00;96844.75;4964031;28;20054;-58
2023/08/31 01:18:40;;;;;;;6.45;3.38;;;;;;;10.36;100.00;96848.19;4977260;28;20033;-59
2023/08/31 01:21:30;;;;;;;8.65;3.30;;;;;;;10.34;100.00;96874.69;4964863;28;20053;-59
2023/08/31 01:23:58;;;;;;;7.15;3.15;;;;;;;10.13;100.00;96863.72;4997081;28;20046;-59
2023/08/31 01:26:25;;;;;;;8.50;3.38;;;;;;;10.20;100.00;96893.25;4960008;28;20042;-59
2023/08/31 01:28:52;;;;;;;5.90;2.97;;;;;;;10.02;100.00;96874.50;4983285;28;20038;-59
2023/08/31 01:31:20;;;;;;;6.38;3.15;;;;;;;9.83;100.00;96884.91;4966855;28;20042;-59
2023/08/31 01:33:47;;;;;;;5.75;2.92;;;;;;;9.72;100.00;96894.84;4999474;28;20045;-58
2023/08/31 01:36:20;;;;;;;6.78;3.58;;;;;;;9.76;100.00;96923.00;4958253;28;20047;-59
2023/08/31 01:38:55;;;;;;;6.72;3.67;;;;;;;9.95;100.00;96957.75;4989377;28;20115;-58
2023/08/31 01:41:23;;;;;;;6.95;3.80;;;;;;;10.01;100.00;96942.38;4985032;28;20797;-58
2023/08/31 01:43:52;;;;;;;6.55;3.70;;;;;;;9.94;100.00;96926.38;4976042;28;20059;-58
2023/08/31 01:46:19;;;;;;;8.35;3.60;;;;;;;10.09;100.00;96944.59;4987454;28;20068;-59
2023/08/31 01:48:46;;;;;;;6.13;3.75;;;;;;;10.09;100.00;96935.66;4972962;28;20416;-59
2023/08/31 01:51:13;;;;;;;7.68;3.90;;;;;;;10.15;100.00;96945.47;4991289;28;20144;-60
2023/08/31 01:53:39;;;;;;;7.93;3.95;;;;;;;10.20;100.00;96928.44;4951185;28;20039;-57
2023/08/31 01:56:06;;;;;;;6.82;4.38;;;;;;;10.37;100.00;96950.75;5001059;28;20040;-59
2023/08/31 01:58:33;;;;;;;7.00;4.38;;;;;;;10.47;100.00;96949.22;4967762;28;20646;-58
2023/08/31 02:01:00;;;;;;;6.43;3.78;;;;;;;10.59;100.00;96940.88;4995452;28;20411;-58
2023/08/31 02:03:27;;;;;;;9.27;4.20;;;;;;;10.69;100.00;96940.94;4954350;28;20092;-59
2023/08/31 02:05:54;;;;;;;5.25;3.40;;;;;;;10.78;100.00;96928.53;4984203;28;20140;-57
2023/08/31 02:08:20;;;;;;;7.72;3.72;;;;;;;10.72;100.00;96886.25;5015227;28;20082;-59
2023/08/31 02:10:48;;;;;;;5.70;3.30;;;;;;;10.74;100.00;96883.28;4981291;28;20043;-58
2023/08/31 02:13:21;;;;;;;6.38;3.22;;;;;;;10.88;100.00;96875.47;4953560;28;20035;-59
2023/08/31 02:15:51;;;;;;;5.15;2.90;;;;;;;11.03;100.00;96843.00;4995712;28;20142;-62
2023/08/31 02:18:19;;;;;;;6.97;2.70;;;;;;;11.14;100.00;96824.06;4984848;28;20039;-59
2023/08/31 02:20:46;;;;;;;7.72;2.88;;;;;;;11.14;100.00;96824.91;4987029;28;20713;-58
2023/08/31 02:23:13;;;;;;;6.90;3.17;;;;;;;11.16;100.00;96822.72;4959712;28;20445;-58
2023/08/31 02:25:40;;;;;;;4.57;2.20;;;;;;;11.22;100.00;96820.81;4985772;28;20564;-59
2023/08/31 02:28:07;;;;;;;6.68;2.67;;;;;;;11.23;100.00;96817.03;4967394;28;20039;-59
2023/08/31 02:30:36;;;;;;;4.32;2.22;;;;;;;11.25;100.00;96824.88;4986217;28;20047;-59
2023/08/31 02:33:05;;;;;;;9.73;2.65;;;;;;;11.18;100.00;96827.88;4954613;28;20031;-58
2023/08/31 02:35:33;;;;;;;7.80;2.63;;;;;;;11.22;100.00;96828.13;4978366;28;20485;-58
2023/08/31 02:37:59;;;;;;;7.15;2.88;;;;;;;11.21;100.00;96834.63;4962746;28;20035;-60
2023/08/31 02:40:26;;;;;;;4.90;2.35;;;;;;;11.22;100.00;96839.78;4998673;28;20138;-59
2023/08/31 02:42:52;;;;;;;4.47;2.17;;;;;;;11.27;100.00;96834.38;4963231;28;20049;-57
2023/08/31 02:45:20;;;;;;;6.38;2.78;;;;;;;11.29;100.00;96837.63;4963940;28;20510;-59
2023/08/31 02:47:49;;;;;;;4.20;2.53;;;;;;;11.21;100.00;96853.59;4979855;28;20054;-58
2023/08/31 02:50:16;;;;;;;6.18;2.63;;;;;;;11.27;100.00;96872.31;4994801;28;20502;-58
2023/08/31 02:52:42;;;;;;;7.70;2.60;;;;;;;11.28;100.00;96865.00;4962341;28;20049;-58
2023/08/31 02:55:10;;;;;;;4.57;2.50;;;;;;;11.25;100.00;96852.00;4980543;28;20051;-60
2023/08/31 02:57:36;;;;;;;5.30;2.63;;;;;;;11.22;100.00;96858.75;4987803;28;20055;-59
2023/08/31 03:00:06;;;;;;;5.57;2.50;;;;;;;11.26;100.00;96859.03;4987331;28;20057;-59
2023/08/31 03:02:36;;;;;;;5.22;2.55;;;;;;;11.27;100.00;96850.63;4960407;28;20035;-60
2023/08/31 03:05:03;;;;;;;5.55;2.40;;;;;;;11.27;100.00;96847.09;4971167;28;20054;-59
2023/08/31 03:07:30;;;;;;;3.95;2.40;;;;;;;11.05;100.00;96856.28;4960215;28;20081;-59
2023/08/31 03:09:56;;;;;;;5.18;2.50;;;;;;;11.11;100.00;96876.91;4967260;28;20043;-58
2023/08/31 03:12:23;;;;;;;6.45;2.55;;;;;;;10.99;100.00;96873.63;4962510;28;20046;-58
2023/08/31 03:14:49;;;;;;;4.80;2.80;;;;;;;10.96;100.00;96869.53;4972371;28;20061;-59
2023/08/31 03:17:17;;;;;;;5.70;2.88;;;;;;;10.82;100.00;96885.47;4962033;28;20053;-57
2023/08/31 03:19:44;;;;;;;6.97;2.47;;;;;;;10.79;100.00;96884.13;4988502;28;20050;-59
2023/08/31 03:22:11;;;;;;;9.98;2.88;;;;;;;10.72;100.00;96880.84;4944829;28;20047;-59
2023/08/31 03:24:38;;;;;;;6.70;2.90;;;;;;;10.77;100.00;96890.88;4973083;28;20033;-57
2023/08/31 03:27:04;;;;;;;5.10;2.50;;;;;;;10.63;100.00;96885.13;4970499;28;20148;-59
2023/08/31 03:29:32;;;;;;;5.50;2.47;;;;;;;10.37;100.00;96912.88;5002912;28;20483;-57
2023/08/31 03:32:00;;;;;;;8.90;2.90;;;;;;;10.30;100.00;96912.28;4954833;28;20050;-59
2023/08/31 03:34:30;;;;;;;5.20;2.75;;;;;;;10.49;100.00;96918.09;4964081;28;20417;-59
2023/08/31 03:36:58;;;;;;;6.97;2.70;;;;;;;10.48;100.00;96896.72;4956501;28;20058;-59
2023/08/31 03:39:25;;;;;;;4.85;2.97;;;;;;;10.53;100.00;96908.38;4981909;28;20074;-59
2023/08/31 03:41:52;;;;;;;6.55;2.92;;;;;;;10.57;100.00;96907.84;4996551;28;20104;-59
2023/08/31 03:44:20;;;;;;;6.45;4.10;;;;;;;10.77;100.00;96893.59;4961809;28;20046;-58
2023/08/31 03:46:49;;;;;;;4.75;2.50;;;;;;;10.79;100.00;96877.88;4978823;28;20051;-59
2023/08/31 03:49:15;;;;;;;6.65;2.60;;;;;;;10.82;100.00;96863.81;4971177;28;20158;-59
2023/08/31 03:51:43;;;;;;;6.25;2.50;;;;;;;10.90;100.00;96873.31;4968662;28;20062;-58
2023/08/31 03:54:12;;;;;;;5.32;2.30;;;;;;;10.99;100.00;96874.41;4963568;28;20062;-57
2023/08/31 03:56:39;;;;;;;6.05;2.58;;;;;;;11.03;100.00;96874.72;4982715;28;20038;-57
2023/08/31 03:59:05;;;;;;;6.72;2.55;;;;;;;11.09;100.00;96881.75;4973253;28;20046;-58
2023/08/31 04:01:32;;;;;;;6.20;2.58;;;;;;;11.17;100.00;96888.56;4971286;28;20053;-58
2023/08/31 04:03:59;;;;;;;5.70;2.22;;;;;;;11.18;100.00;96882.84;4983399;28;20128;-59
2023/08/31 04:06:27;;;;;;;4.80;2.63;;;;;;;11.21;100.00;96884.25;5001097;28;20051;-59
2023/08/31 04:08:54;;;;;;;6.72;2.47;;;;;;;11.20;100.00;96885.31;4968860;28;20058;-58
2023/08/31 04:11:21;;;;;;;5.18;2.47;;;;;;;11.08;100.00;96884.72;4981524;28;20074;-59
2023/08/31 04:13:47;;;;;;;5.95;2.75;;;;;;;11.01;100.00;96884.97;5003652;28;20044;-59
2023/08/31 04:16:14;;;;;;;9.63;2.83;;;;;;;10.84;100.00;96901.47;4987879;28;20043;-57
2023/08/31 04:18:41;;;;;;;4.75;2.60;;;;;;;10.87;100.00;96906.38;4990811;28;20158;-58
2023/08/31 04:21:08;;;;;;;6.45;3.20;;;;;;;10.91;100.00;96904.75;4998250;28;20147;-58
2023/08/31 04:23:34;;;;;;;6.05;2.72;;;;;;;10.89;100.00;96896.88;4963062;28;20125;-59
2023/08/31 04:26:09;;;;;;;4.53;2.90;;;;;;;10.87;100.00;96912.56;4987264;28;20047;-59
2023/08/31 04:28:37;;;;;;;5.10;2.90;;;;;;;10.83;100.00;96922.31;4969935;28;20556;-60
2023/08/31 04:31:05;;;;;;;7.00;2.88;;;;;;;10.78;100.00;96917.69;5000581;28;20047;-60
2023/08/31 04:33:32;;;;;;;5.97;2.88;;;;;;;10.90;100.00;96916.66;4962366;28;20062;-60
2023/08/31 04:35:58;;;;;;;7.93;2.72;;;;;;;10.88;100.00;96916.09;4983747;28;20051;-58
2023/08/31 04:38:25;;;;;;;3.83;2.38;;;;;;;10.97;100.00;96916.41;4998074;28;20048;-59
2023/08/31 04:40:51;;;;;;;6.15;3.53;;;;;;;11.04;100.00;96906.13;4961968;28;20046;-60
2023/08/31 04:43:18;;;;;;;6.28;2.95;;;;;;;11.16;100.00;96905.88;4965436;28;20050;-59
2023/08/31 04:45:44;;;;;;;5.85;2.50;;;;;;;11.21;100.00;96899.69;4961484;28;20053;-59
2023/08/31 04:48:11;;;;;;;6.57;2.60;;;;;;;11.14;100.00;96899.94;4966458;28;20519;-59
2023/08/31 04:50:38;;;;;;;6.30;2.60;;;;;;;11.12;100.00;96907.50;4978643;28;20046;-58
2023/08/31 04:53:04;;;;;;;6.00;2.95;;;;;;;11.19;100.00;96908.06;4998295;28;20050;-58
2023/08/31 04:55:31;;;;;;;7.68;2.60;;;;;;;11.25;100.00;96896.19;4971266;28;20078;-58
2023/08/31 04:57:57;;;;;;;5.30;2.10;;;;;;;11.23;100.00;96898.31;4961613;28;20133;-59
2023/08/31 05:00:24;;;;;;;5.88;2.35;;;;;;;11.21;100.00;96900.50;4998866;28;20597;-59
2023/08/31 05:02:51;;;;;;;5.35;2.55;;;;;;;11.23;100.00;96901.03;4964238;28;20075;-57
2023/08/31 05:05:20;;;;;;;8.18;2.53;;;;;;;11.25;100.00;96904.31;4980684;28;20052;-59
2023/08/31 05:07:47;;;;;;;5.22;2.10;;;;;;;11.29;100.00;96910.00;4966756;28;20054;-59
2023/08/31 05:10:14;;;;;;;4.20;2.40;;;;;;;11.34;100.00;96904.56;4972854;28;20041;-59
2023/08/31 05:12:40;;;;;;;6.15;2.85;;;;;;;11.31;100.00;96908.63;4961242;28;20049;-59
2023/08/31 05:15:08;;;;;;;4.45;2.10;;;;;;;11.38;100.00;96916.50;4969852;28;20135;-60
2023/08/31 05:17:34;;;;;;;5.75;2.15;;;;;;;11.36;100.00;96915.97;4974992;28;20074;-59
2023/08/31 05:20:04;;;;;;;5.82;2.75;;;;;;;11.32;100.00;96918.38;4979895;28;20728;-58
2023/08/31 05:22:30;;;;;;;5.45;2.63;;;;;;;11.23;100.00;96922.72;4998188;28;20118;-58
2023/08/31 05:24:57;;;;;;;6.57;2.97;;;;;;;11.19;100.00;96930.56;4963154;28;20502;-58
2023/08/31 05:27:23;;;;;;;5.47;2.70;;;;;;;11.22;100.00;96929.22;4985014;28;20690;-60
2023/08/31 05:29:50;;;;;;;5.18;2.42;;;;;;;11.25;100.00;96934.13;4962228;28;20108;-58
2023/08/31 05:32:17;;;;;;;7.25;2.33;;;;;;;11.38;100.00;96938.19;4973149;28;20085;-60
2023/08/31 05:34:43;;;;;;;5.20;2.45;;;;;;;11.31;100.00;96941.16;4960952;28;20042;-59
2023/08/31 05:37:10;;;;;;;4.35;2.35;;;;;;;11.37;100.00;96941.16;4962031;28;20042;-59
2023/08/31 05:39:36;;;;;;;5.35;2.60;;;;;;;11.35;100.00;96948.78;4961307;28;20074;-60
2023/08/31 05:42:03;;;;;;;5.45;2.53;;;;;;;11.34;100.00;96952.53;4996613;28;20058;-59
2023/08/31 05:44:30;;;;;;;7.40;3.58;;;;;;;11.34;100.00;96960.66;4965618;28;20053;-59
2023/08/31 05:46:56;;;;;;;4.68;2.38;;;;;;;11.29;100.00;96951.47;4977742;28;20836;-59
2023/08/31 05:49:23;;;;;;;5.32;2.75;;;;;;;11.38;100.00;96953.63;4962754;28;20069;-58
2023/08/31 05:51:50;;;;;;;5.63;2.20;;;;;;;11.37;100.00;96958.25;4976885;28;20054;-59
2023/08/31 05:54:17;;;;;;;5.97;2.55;;;;;;;11.45;100.00;96962.34;4958977;28;20134;-59
2023/08/31 05:56:43;;;;;;;10.60;2.95;;;;;;;11.54;100.00;96958.00;4982162;28;20059;-59
2023/08/31 05:59:10;;;;;;;6.35;2.42;;;;;;;11.50;100.00;96956.13;4994452;28;20055;-59
2023/08/31 06:01:37;;;;;;;4.70;2.13;;;;;;;11.66;100.00;96965.09;4983763;28;20552;-59
2023/08/31 06:04:03;;;;;;;4.35;2.03;;;;;;;11.83;100.00;96957.50;4967260;28;20054;-59
2023/08/31 06:06:32;;;;;;;6.32;2.60;;;;;;;11.94;100.00;96961.03;4972369;28;20051;-59
2023/08/31 06:08:59;;;;;;;5.82;2.30;;;;;;;12.07;100.00;96958.91;4961005;28;20057;-59
2023/08/31 06:11:25;;;;;;;4.90;1.85;;;;;;;12.20;100.00;96961.06;4975411;28;20461;-60
2023/08/31 06:13:52;;;;;;;7.82;2.25;;;;;;;12.35;100.00;96957.50;4959361;28;20570;-60
2023/08/31 06:16:18;;;;;;;7.60;2.53;;;;;;;12.43;100.00;96960.78;5007705;28;20047;-60
2023/08/31 06:18:45;;;;;;;4.70;2.10;;;;;;;12.54;100.00;96956.13;4960573;28;20081;-59
2023/08/31 06:21:12;;;;;;;6.13;2.10;;;;;;;12.50;100.00;96961.31;4964050;28;20047;-59
2023/08/31 06:23:38;;;;;;;6.88;1.80;;;;;;;12.40;100.00;96954.00;4960913;28;20045;-59
2023/08/31 06:26:05;;;;;;;5.90;2.15;;;;;;;12.40;100.00;96954.00;4969078;28;20057;-59
2023/08/31 06:28:31;;;;;;;5.55;1.90;;;;;;;12.62;100.00;96961.00;4962622;28;20429;-59
2023/08/31 06:30:58;;;;;;;6.43;2.38;;;;;;;12.65;100.00;96960.47;4964263;28;20051;-59
2023/08/31 06:33:24;;;;;;;5.22;1.95;;;;;;;12.80;100.00;96966.94;4960409;28;20519;-59
2023/08/31 06:35:54;;;;;;;5.47;1.70;;;;;;;12.79;100.00;96966.09;4962243;28;20041;-58
2023/08/31 06:38:20;;;;;;;6.53;1.58;;;;;;;12.81;100.00;96982.97;4986650;28;20040;-58
2023/08/31 06:40:47;;;;;;;5.63;1.60;;;;;;;12.96;100.00;96984.81;4974328;28;20221;-57
2023/08/31 06:43:14;;;;;;;7.75;1.80;;;;;;;12.99;100.00;96981.53;4962466;28;20518;-59
2023/08/31 06:45:41;;;;;;;4.68;1.83;;;;;;;12.94;100.00;96986.97;4961099;28;20105;-60
2023/08/31 06:48:08;;;;;;;4.65;1.95;;;;;;;12.92;100.00;96983.75;4962431;28;20047;-59
2023/08/31 06:50:37;;;;;;;5.95;2.13;;;;;;;12.83;100.00;96988.91;4961366;28;20050;-59
2023/08/31 06:53:04;;;;;;;3.60;1.80;;;;;;;12.73;100.00;96981.63;4958094;28;20046;-58
2023/08/31 06:55:31;;;;;;;6.75;1.75;;;;;;;12.83;100.00;96983.47;4972749;28;20054;-59
2023/08/31 06:57:59;;;;;;;5.20;1.63;;;;;;;12.80;100.00;96983.22;4998924;28;20533;-59
2023/08/31 07:00:26;;;;;;;6.40;1.77;;;;;;;12.79;100.00;96982.41;4983138;28;20712;-58
2023/08/31 07:02:52;;;;;;;4.13;1.80;;;;;;;12.77;100.00;96979.16;4971470;28;20051;-57
2023/08/31 07:05:25;;;;;;;3.65;1.75;;;;;;;12.79;100.00;96979.69;5020391;28;20058;-59
2023/08/31 07:07:54;;;;;;;7.63;1.50;;;;;;;12.90;100.00;96975.03;4996657;28;20062;-59
2023/08/31 07:10:21;;;;;;;3.80;1.63;;;;;;;13.00;100.00;96983.16;4963828;28;20070;-59
2023/08/31 07:12:48;;;;;;;4.57;1.80;;;;;;;13.12;100.00;96987.47;4991902;28;20039;-58
2023/08/31 07:15:15;;;;;;;5.28;1.77;;;;;;;13.29;100.00;96981.69;4960288;28;20139;-59
2023/08/31 07:17:42;;;;;;;6.85;1.75;;;;;;;13.51;100.00;96985.94;4995047;28;20728;-60
2023/08/31 07:20:10;;;;;;;4.15;1.70;;;;;;;13.53;100.00;96984.56;4963327;28;20042;-59
2023/08/31 07:22:37;;;;;;;7.68;2.30;;;;;;;13.64;100.00;96985.31;4974719;28;20053;-64
2023/08/31 07:25:05;;;;;;;5.85;1.75;;;;;;;13.71;100.00;96995.88;4956848;28;20054;-64
2023/08/31 07:27:32;;;;;;;7.93;2.63;;;;;;;13.89;96.71;97009.94;5000766;28;20048;-63
2023/08/31 07:29:59;;;;;;;6.30;1.70;;;;;;;14.12;96.34;97008.41;4962246;28;20062;-64
2023/08/31 07:32:25;;;;;;;4.53;1.63;;;;;;;14.23;93.49;97011.06;4985242;28;20537;-64
2023/08/31 07:34:52;;;;;;;5.00;1.50;;;;;;;14.36;92.71;97025.91;4957914;28;20054;-65
2023/08/31 07:37:19;;;;;;;6.78;1.85;;;;;;;14.40;93.12;97022.34;4974643;28;20061;-65
2023/08/31 07:39:45;;;;;;;4.45;1.45;;;;;;;14.40;92.39;97018.81;4993419;28;20035;-64
2023/08/31 07:42:12;;;;;;;5.18;1.83;;;;;;;14.44;92.35;97012.50;4995488;28;20048;-59
2023/08/31 07:44:39;;;;;;;6.32;1.88;;;;;;;14.57;91.29;97016.47;4976621;28;20042;-64
2023/08/31 07:47:05;;;;;;;4.55;1.88;;;;;;;14.67;90.32;97012.03;4985260;28;20047;-63
2023/08/31 07:49:32;;;;;;;5.22;1.50;;;;;;;14.61;87.14;97016.72;4976123;28;20484;-63
2023/08/31 07:51:59;;;;;;;4.57;1.42;;;;;;;14.66;87.37;97018.56;5014417;28;20054;-63
2023/08/31 07:54:25;;;;;;;6.50;1.40;;;;;;;14.55;85.33;97032.28;4993159;28;20113;-58
2023/08/31 07:56:52;;;;;;;4.05;1.30;;;;;;;14.53;84.28;97037.19;4976065;28;20047;-59
2023/08/31 07:59:19;;;;;;;3.75;1.40;;;;;;;14.35;92.35;97024.31;4966347;28;20497;-64
2023/08/31 08:01:46;;;;;;;5.22;1.75;;;;;;;14.36;91.26;97028.63;4983951;28;20044;-64
2023/08/31 08:04:13;;;;;;;5.10;1.65;;;;;;;14.25;89.72;97038.81;4966411;28;20054;-63
2023/08/31 08:06:39;;;;;;;6.32;1.75;;;;;;;14.30;92.81;97039.59;4997081;28;20332;-65
2023/08/31 08:09:06;;;;;;;4.30;1.65;;;;;;;14.35;93.22;97043.38;4988126;28;20058;-64
2023/08/31 08:11:34;;;;;;;3.38;1.35;;;;;;;14.22;93.24;97045.63;4998723;28;20082;-64
2023/08/31 08:14:01;;;;;;;5.03;1.65;;;;;;;14.41;94.31;97053.13;4961931;28;20047;-63
2023/08/31 08:16:27;;;;;;;4.43;1.70;;;;;;;14.54;91.70;97044.31;4975147;28;20073;-64
2023/08/31 08:18:54;;;;;;;7.05;1.90;;;;;;;14.82;92.46;97049.25;4968281;28;20719;-56
2023/08/31 08:21:21;;;;;;;6.88;1.88;;;;;;;14.95;91.47;97045.03;4977733;28;20058;-65
2023/08/31 08:23:50;;;;;;;5.53;1.77;;;;;;;15.12;91.31;97039.13;4954710;28;20117;-64
2023/08/31 08:26:17;;;;;;;7.00;1.70;;;;;;;15.19;83.51;97055.94;4976366;28;20085;-64
2023/08/31 08:28:44;;;;;;;6.13;1.40;;;;;;;15.01;82.46;97048.50;4976860;28;20064;-64
2023/08/31 08:31:10;;;;;;;3.25;1.20;;;;;;;15.12;83.53;97046.50;4968741;28;20053;-64
2023/08/31 08:33:37;;;;;;;4.63;1.33;;;;;;;15.26;84.17;97055.59;5005578;28;20055;-63
2023/08/31 08:36:04;;;;;;;4.45;1.50;;;;;;;15.13;77.76;97053.56;4962575;28;20043;-65
2023/08/31 08:38:30;;;;;;;4.65;1.55;;;;;;;15.39;78.58;97056.00;4974262;28;20398;-63
2023/08/31 08:40:57;;;;;;;4.18;1.60;;;;;;;15.55;75.04;97054.69;5000262;28;20053;-64
2023/08/31 08:43:26;;;;;;;5.22;2.22;;;;;;;15.77;76.67;97063.44;4993676;28;20032;-64
2023/08/31 08:45:54;;;;;;;4.45;1.50;;;;;;;15.63;72.43;97061.44;4985998;28;20045;-62
2023/08/31 08:48:21;;;;;;;5.55;1.50;;;;;;;15.78;71.44;97073.25;4966518;28;20074;-62
2023/08/31 08:50:48;;;;;;;3.75;1.45;;;;;;;15.86;70.87;97067.13;4996563;28;20437;-64
2023/08/31 08:53:15;;;;;;;8.18;1.98;;;;;;;15.80;69.21;97080.03;4974424;28;20048;-62
2023/08/31 08:55:42;;;;;;;4.05;1.40;;;;;;;15.95;73.42;97070.84;4965356;28;20050;-62
2023/08/31 08:58:08;;;;;;;3.40;1.15;;;;;;;15.73;71.27;97074.94;4968329;28;20046;-61
2023/08/31 09:00:35;;;;;;;4.25;1.70;;;;;;;15.63;74.72;97080.56;5022933;28;20071;-62
2023/08/31 09:03:03;;;;;;;5.22;1.63;;;;;;;15.62;74.30;97067.97;4981119;28;20046;-60
2023/08/31 09:05:33;;;;;;;4.50;1.33;;;;;;;15.76;72.88;97079.00;4977864;28;20055;-63
2023/08/31 09:08:01;;;;;;;5.00;1.65;;;;;;;15.65;74.82;97083.78;4974159;28;20620;-62
2023/08/31 09:10:39;;;;;;;4.20;1.52;;;;;;;15.45;70.37;97080.19;4970320;28;20053;-62
2023/08/31 09:13:15;;;;;;;4.28;1.20;;;;;;;15.54;70.08;97083.09;4978240;28;20059;-58
2023/08/31 09:15:44;;;;;;;4.95;1.45;;;;;;;15.50;71.09;97089.41;4978492;28;20104;-63
2023/08/31 09:18:15;;;;;;;2.45;1.20;;;;;;;15.54;66.83;97096.75;4961354;28;20035;-63
2023/08/31 09:20:48;;;;;;;3.63;1.30;;;;;;;15.56;66.41;97088.28;4989490;28;20076;-64
2023/08/31 09:23:16;;;;;;;3.53;1.35;;;;;;;15.69;66.19;97090.28;4967870;28;20521;-62
2023/08/31 09:25:48;;;;;;;3.72;1.45;;;;;;;15.94;67.59;97092.97;4965733;28;20042;-63
2023/08/31 09:28:17;;;;;;;4.43;1.00;;;;;;;16.17;67.43;97082.28;4962565;28;20612;-62
2023/08/31 09:30:45;;;;;;;3.38;1.08;;;;;;;16.32;65.84;97092.16;4961623;28;21092;-63
2023/08/31 09:33:22;;;;;;;4.00;1.30;;;;;;;16.37;63.63;97087.44;4933677;28;20046;-63
2023/08/31 09:35:51;;;;;;;5.38;1.77;;;;;;;16.34;64.66;97093.53;4976664;28;20041;-63
2023/08/31 09:38:18;;;;;;;5.00;1.50;;;;;;;16.49;66.34;97094.38;4994340;28;20077;-58
2023/08/31 09:40:45;;;;;;;2.85;1.25;;;;;;;16.56;64.84;97086.63;5006682;28;20527;-63
2023/08/31 09:43:19;;;;;;;5.65;1.67;;;;;;;16.60;66.08;97095.84;5003287;28;20036;-60
2023/08/31 09:45:47;;;;;;;5.32;1.40;;;;;;;16.61;64.14;97099.38;4995860;28;20512;-57
2023/08/31 09:48:15;;;;;;;5.22;1.20;;;;;;;16.67;60.52;97094.66;4988416;28;20043;-58
2023/08/31 09:50:47;;;;;;;4.55;1.45;;;;;;;16.75;61.54;97099.44;5010866;28;20478;-58
2023/08/31 09:53:16;;;;;;;4.72;1.10;;;;;;;16.84;62.11;97094.09;4974350;28;20058;-60
2023/08/31 09:55:43;;;;;;;4.60;1.50;;;;;;;16.97;64.23;97098.78;4961543;28;20046;-57
2023/08/31 09:58:11;;;;;;;5.72;1.38;;;;;;;17.09;62.78;97100.25;4962441;28;20121;-59
2023/08/31 10:00:43;;;;;;;6.32;1.90;;;;;;;16.87;59.35;97096.22;4930157;28;20761;-60
2023/08/31 10:03:15;;;;;;;3.65;1.08;;;;;;;16.78;62.22;97101.56;4990163;28;20046;-60
2023/08/31 10:05:46;;;;;;;5.72;1.30;;;;;;;16.28;59.68;97111.09;4965593;28;20046;-60
2023/08/31 10:08:14;;;;;;;4.85;1.67;;;;;;;16.25;61.56;97111.66;5032436;28;20054;-60
2023/08/31 10:10:41;;;;;;;4.15;1.38;;;;;;;16.22;63.87;97110.34;4969608;28;20720;-59
2023/08/31 10:13:08;;;;;;;3.40;1.05;;;;;;;16.36;64.30;97107.69;4999038;28;20046;-60
2023/08/31 10:15:36;;;;;;;6.55;1.88;;;;;;;16.67;62.78;97108.31;4971932;28;20053;-59
2023/08/31 10:18:06;;;;;;;6.03;1.60;;;;;;;16.82;62.20;97109.97;4999603;28;20042;-60
2023/08/31 10:20:34;;;;;;;6.75;1.60;;;;;;;16.66;61.86;97118.44;4987015;28;20042;-60
2023/08/31 10:23:05;;;;;;;4.80;1.40;;;;;;;16.42;63.39;97113.88;4993676;28;21420;-60
2023/08/31 10:25:50;;;;;;;6.43;1.58;;;;;;;16.69;62.83;97109.63;4980843;28;20050;-60
2023/08/31 10:28:25;;;;;;;7.90;1.80;;;;;;;16.96;63.32;97110.84;4988846;28;20069;-60
2023/08/31 10:31:09;;;;;;;6.10;2.25;;;;;;;16.93;63.50;97111.44;4971419;28;20074;-60
2023/08/31 10:33:59;;;;;;;4.10;1.45;;;;;;;17.14;64.57;97111.91;4990983;28;20044;-60
2023/08/31 10:36:45;;;;;;;3.60;1.27;;;;;;;16.92;62.13;97112.56;4960508;28;20050;-60
2023/08/31 10:39:22;;;;;;;4.97;1.80;;;;;;;16.94;59.62;97114.97;4985959;28;20181;-60
2023/08/31 10:41:53;;;;;;;5.90;1.70;;;;;;;16.57;62.77;97112.84;4969576;28;20042;-60
2023/08/31 10:44:22;;;;;;;3.33;1.27;;;;;;;16.40;63.00;97118.81;4998557;28;20039;-60
2023/08/31 10:46:49;;;;;;;5.68;1.80;;;;;;;16.25;64.95;97114.41;4965297;28;20038;-60
2023/08/31 10:49:21;;;;;;;7.72;1.70;;;;;;;16.55;65.50;97116.97;4990354;28;20046;-60
2023/08/31 10:51:53;;;;;;;4.10;1.50;;;;;;;16.85;62.65;97112.91;4969750;28;20046;-60
2023/08/31 10:54:26;;;;;;;;;;;;;;;17.21;62.81;97113.44;5007536;28;20083;-60
2023/08/31 10:56:56;;;;;;;4.50;1.42;;;;;;;17.22;61.96;97106.84;4959516;28;20378;-60
2023/08/31 10:59:25;;;;;;;4.20;1.75;;;;;;;16.99;62.58;97101.22;4987862;28;20128;-60
2023/08/31 11:01:53;;;;;;;5.18;2.05;;;;;;;16.98;62.95;97107.78;4988506;28;20067;-61
2023/08/31 11:04:23;;;;;;;7.43;2.03;;;;;;;17.00;62.05;97120.03;4989900;28;20118;-61
2023/08/31 11:07:17;;;;;;;4.20;1.60;;;;;;;16.85;62.18;97112.91;4973223;28;20046;-60
2023/08/31 11:09:45;;;;;;;5.43;1.48;;;;;;;17.13;62.01;97106.72;4989402;28;20055;-60
2023/08/31 11:12:13;;;;;;;9.48;1.77;;;;;;;17.33;62.26;97099.25;4963298;28;20064;-56
2023/08/31 11:14:40;;;;;;;4.80;1.85;;;;;;;17.31;61.59;97109.72;4968660;28;20054;-58
2023/08/31 11:17:07;;;;;;;5.18;1.60;;;;;;;17.21;62.43;97103.31;4988270;28;20038;-61
2023/08/31 11:19:35;;;;;;;6.40;2.00;;;;;;;17.20;62.32;97106.34;4948395;28;20043;-59
2023/08/31 11:22:03;;;;;;;9.63;2.22;;;;;;;17.02;63.39;97090.50;4961944;28;20130;-60
2023/08/31 11:24:31;;;;;;;6.68;1.98;;;;;;;17.08;63.00;97091.25;5037489;28;20503;-59
2023/08/31 11:26:59;;;;;;;4.03;1.73;;;;;;;16.90;61.69;97092.88;4963532;28;20680;-59
2023/08/31 11:29:26;;;;;;;6.18;1.73;;;;;;;17.21;61.84;97092.34;4966883;28;20486;-59
2023/08/31 11:31:55;;;;;;;6.97;2.20;;;;;;;17.26;61.63;97092.28;4957802;28;20074;-61
2023/08/31 11:34:22;;;;;;;4.45;1.30;;;;;;;17.43;62.20;97088.09;4966096;28;20104;-60